Time;durP1;ratioP1;P1;durP2;ratioP2;P2;SDS_P1;SDS_P2;PMS_P1;PMS_P2;Temp;Humidity;BMP_temperature;BMP_pressure;BME280_temperature;BME280_humidity;BME280_pressure;Samples;Min_cycle;Max_cycle;Signal;HPM_P1;HPM_P2
2022/09/24 00:00:30;;;;;;;50.45;37.28;;;;;;;;;;5014154;28;20022;-73
2022/09/24 00:02:56;;;;;;;61.38;40.65;;;;;;;;;;5007175;28;20741;-72
2022/09/24 00:05:22;;;;;;;50.97;40.17;;;;;;;;;;5018815;28;20492;-72
2022/09/24 00:07:48;;;;;;;56.13;42.65;;;;;;;;;;5007396;28;20501;-72
2022/09/24 00:10:14;;;;;;;56.42;39.50;;;;;;;;;;5008678;28;20036;-73
2022/09/24 00:12:40;;;;;;;53.75;41.13;;;;;;;;;;5001527;28;20405;-73
2022/09/24 00:15:07;;;;;;;55.33;42.00;;;;;;;;;;5008392;28;20047;-74
2022/09/24 00:17:33;;;;;;;55.83;39.25;;;;;;;;;;5008311;28;20041;-74
2022/09/24 00:19:59;;;;;;;53.65;38.33;;;;;;;;;;5015371;28;20038;-73
2022/09/24 00:22:25;;;;;;;56.83;41.92;;;;;;;;;;5008863;28;20030;-72
2022/09/24 00:27:35;;;;;;;65.53;45.15;;;;;;;;;;5005849;28;20517;-73
2022/09/24 00:30:01;;;;;;;68.65;45.35;;;;;;;;;;5003954;28;20128;-75
2022/09/24 00:32:27;;;;;;;62.17;45.78;;;;;;;;;;5001775;28;20041;-72
2022/09/24 00:34:53;;;;;;;63.50;46.17;;;;;;;;;;5007058;28;20041;-72
2022/09/24 00:37:20;;;;;;;65.35;48.30;;;;;;;;;;4998562;28;20034;-73
2022/09/24 00:39:46;;;;;;;65.20;46.35;;;;;;;;;;5018320;28;20049;-72
2022/09/24 00:42:13;;;;;;;68.60;48.63;;;;;;;;;;5008527;28;20034;-73
2022/09/24 00:44:45;;;;;;;69.18;48.45;;;;;;;;;;5005977;28;20037;-73
2022/09/24 00:47:18;;;;;;;72.25;50.67;;;;;;;;;;5013314;28;20473;-72
2022/09/24 00:49:46;;;;;;;74.20;50.50;;;;;;;;;;5012337;28;20478;-72
2022/09/24 00:52:13;;;;;;;80.18;53.40;;;;;;;;;;5012040;28;20088;-72
2022/09/24 00:54:42;;;;;;;73.30;49.63;;;;;;;;;;5008565;28;20107;-75
2022/09/24 00:57:08;;;;;;;80.93;55.45;;;;;;;;;;5007520;28;20508;-73
2022/09/24 00:59:34;;;;;;;91.50;57.20;;;;;;;;;;5008221;28;20022;-73
2022/09/24 01:02:02;;;;;;;87.82;56.70;;;;;;;;;;5011561;28;20046;-73
2022/09/24 01:04:28;;;;;;;89.82;57.28;;;;;;;;;;5009691;28;20560;-76
2022/09/24 01:06:55;;;;;;;92.43;59.42;;;;;;;;;;5013096;28;20413;-73
2022/09/24 01:09:22;;;;;;;91.22;60.80;;;;;;;;;;5012843;28;20029;-76
2022/09/24 01:12:14;;;;;;;90.45;58.80;;;;;;;;;;5016117;28;20502;-74
2022/09/24 01:14:49;;;;;;;100.32;63.03;;;;;;;;;;5010466;28;20065;-74
2022/09/24 01:17:25;;;;;;;98.75;65.65;;;;;;;;;;5008617;28;20030;-72
2022/09/24 01:19:51;;;;;;;103.63;61.05;;;;;;;;;;5011533;28;20088;-73
2022/09/24 01:22:44;;;;;;;92.85;59.05;;;;;;;;;;5012944;28;20444;-72
2022/09/24 01:25:28;;;;;;;89.78;59.17;;;;;;;;;;4982701;28;20396;-72
2022/09/24 01:28:05;;;;;;;95.55;59.28;;;;;;;;;;5018184;28;20385;-72
2022/09/24 01:30:33;;;;;;;93.95;60.78;;;;;;;;;;5013582;28;20060;-77
2022/09/24 01:33:02;;;;;;;94.38;60.38;;;;;;;;;;5011448;28;20053;-72
2022/09/24 01:35:39;;;;;;;98.50;60.53;;;;;;;;;;5008659;28;20034;-73
2022/09/24 01:38:11;;;;;;;95.28;60.42;;;;;;;;;;5025036;28;20121;-73
2022/09/24 01:40:38;;;;;;;91.63;57.08;;;;;;;;;;5008510;28;20026;-72
2022/09/24 01:43:05;;;;;;;93.03;57.70;;;;;;;;;;5011227;28;20128;-73
2022/09/24 01:45:32;;;;;;;88.00;55.80;;;;;;;;;;5013364;28;20076;-73
2022/09/24 01:48:01;;;;;;;87.88;54.58;;;;;;;;;;5007152;28;20058;-73
2022/09/24 01:50:29;;;;;;;87.57;52.65;;;;;;;;;;5012820;28;20531;-72
2022/09/24 01:52:57;;;;;;;78.00;50.10;;;;;;;;;;5000281;28;20046;-74
2022/09/24 01:55:28;;;;;;;79.50;51.42;;;;;;;;;;5005734;28;20462;-72
2022/09/24 01:58:15;;;;;;;78.47;49.28;;;;;;;;;;5008838;28;20058;-72
2022/09/24 02:00:43;;;;;;;85.32;49.67;;;;;;;;;;5010192;28;20104;-72
2022/09/24 02:03:12;;;;;;;80.40;51.95;;;;;;;;;;5003821;28;20080;-73
2022/09/24 02:05:50;;;;;;;78.63;50.72;;;;;;;;;;5007197;28;20532;-73
2022/09/24 02:08:18;;;;;;;78.50;50.10;;;;;;;;;;5010085;28;20038;-73
2022/09/24 02:10:47;;;;;;;71.30;46.90;;;;;;;;;;5009458;28;20053;-72
2022/09/24 02:13:15;;;;;;;80.60;49.28;;;;;;;;;;5011539;28;20061;-75
2022/09/24 02:15:44;;;;;;;83.43;50.60;;;;;;;;;;5012700;28;20030;-73
2022/09/24 02:18:15;;;;;;;74.80;46.65;;;;;;;;;;5009752;28;20038;-73
2022/09/24 02:20:42;;;;;;;75.13;47.28;;;;;;;;;;5016166;28;20022;-74
2022/09/24 02:23:10;;;;;;;72.85;46.80;;;;;;;;;;5008443;28;20121;-74
2022/09/24 02:25:49;;;;;;;68.30;43.67;;;;;;;;;;4988679;28;20517;-73
2022/09/24 02:28:15;;;;;;;69.97;45.50;;;;;;;;;;4997672;28;20037;-73
2022/09/24 02:30:44;;;;;;;69.80;44.90;;;;;;;;;;5010699;28;20038;-73
2022/09/24 02:34:19;;;;;;;62.17;43.00;;;;;;;;;;5008232;28;20044;-72
2022/09/24 02:35:57;;;;;;;60.80;38.72;;;;;;;;;;5008589;28;20540;-72
2022/09/24 02:38:23;;;;;;;60.72;39.15;;;;;;;;;;5006275;28;20101;-72
2022/09/24 02:40:50;;;;;;;83.55;48.05;;;;;;;;;;5014702;28;20029;-74
2022/09/24 02:43:16;;;;;;;66.53;42.13;;;;;;;;;;5015484;28;20473;-74
2022/09/24 02:45:42;;;;;;;65.55;42.10;;;;;;;;;;5004878;28;20485;-73
2022/09/24 02:48:08;;;;;;;62.33;41.25;;;;;;;;;;5010001;28;20394;-73
2022/09/24 02:50:34;;;;;;;65.18;41.47;;;;;;;;;;5004653;28;20401;-74
2022/09/24 02:53:00;;;;;;;65.07;39.88;;;;;;;;;;5011778;28;20501;-73
2022/09/24 02:55:26;;;;;;;63.58;42.17;;;;;;;;;;5009069;28;20045;-75
2022/09/24 02:57:53;;;;;;;63.83;42.40;;;;;;;;;;5011385;28;20045;-74
2022/09/24 03:00:19;;;;;;;62.58;40.75;;;;;;;;;;5008076;28;20505;-73
2022/09/24 03:02:46;;;;;;;57.15;39.55;;;;;;;;;;4992890;28;20125;-73
2022/09/24 03:05:16;;;;;;;77.43;45.60;;;;;;;;;;5008300;28;20026;-75
2022/09/24 03:07:43;;;;;;;76.25;44.40;;;;;;;;;;5014124;28;20053;-73
2022/09/24 03:10:09;;;;;;;73.40;44.70;;;;;;;;;;4994848;28;20087;-73
2022/09/24 03:12:35;;;;;;;68.18;42.88;;;;;;;;;;5007654;28;20045;-73
2022/09/24 03:15:01;;;;;;;68.68;41.40;;;;;;;;;;5008932;28;20041;-74
2022/09/24 03:17:27;;;;;;;86.55;46.72;;;;;;;;;;5008280;28;20034;-74
2022/09/24 03:19:54;;;;;;;83.28;46.63;;;;;;;;;;5011134;28;20121;-73
2022/09/24 03:22:20;;;;;;;63.72;38.97;;;;;;;;;;4993106;28;20065;-73
2022/09/24 03:24:46;;;;;;;80.57;45.65;;;;;;;;;;5008258;28;20030;-73
2022/09/24 03:27:12;;;;;;;66.57;42.30;;;;;;;;;;5010073;28;20084;-73
2022/09/24 03:32:23;;;;;;;83.78;45.40;;;;;;;;;;5010700;28;20048;-73
2022/09/24 03:34:49;;;;;;;76.18;44.25;;;;;;;;;;5007488;28;20057;-73
2022/09/24 03:37:15;;;;;;;73.18;43.88;;;;;;;;;;5010228;28;20135;-75
2022/09/24 03:39:41;;;;;;;66.95;41.22;;;;;;;;;;5000929;28;20482;-72
2022/09/24 03:42:07;;;;;;;83.40;45.13;;;;;;;;;;5012554;28;20037;-73
2022/09/24 03:44:33;;;;;;;90.53;46.33;;;;;;;;;;5008647;28;20381;-75
2022/09/24 03:47:00;;;;;;;92.57;45.67;;;;;;;;;;5008787;28;20081;-72
2022/09/24 03:49:26;;;;;;;80.72;41.97;;;;;;;;;;5010806;28;20068;-72
2022/09/24 03:51:52;;;;;;;74.15;42.28;;;;;;;;;;5007559;28;20159;-73
2022/09/24 03:54:18;;;;;;;71.93;40.70;;;;;;;;;;5006432;28;20069;-73
2022/09/24 03:56:44;;;;;;;71.65;40.13;;;;;;;;;;5008832;28;20040;-72
2022/09/24 03:59:10;;;;;;;62.30;38.22;;;;;;;;;;5008745;28;20030;-72
2022/09/24 04:01:37;;;;;;;67.43;38.20;;;;;;;;;;5001911;28;20061;-73
2022/09/24 04:04:03;;;;;;;69.10;39.78;;;;;;;;;;5010341;28;20026;-73
2022/09/24 04:06:30;;;;;;;76.10;40.60;;;;;;;;;;5010125;28;20033;-72
2022/09/24 04:08:56;;;;;;;52.03;31.67;;;;;;;;;;5004610;28;20030;-73
2022/09/24 04:11:23;;;;;;;55.00;31.58;;;;;;;;;;5005024;28;20054;-72
2022/09/24 04:13:49;;;;;;;64.55;34.40;;;;;;;;;;5011975;28;20026;-73
2022/09/24 04:16:16;;;;;;;56.50;32.83;;;;;;;;;;5015664;28;20033;-72
2022/09/24 04:18:42;;;;;;;46.13;29.35;;;;;;;;;;5009313;28;20042;-72
2022/09/24 04:21:08;;;;;;;44.67;29.40;;;;;;;;;;5012786;28;20094;-72
2022/09/24 04:23:35;;;;;;;46.83;30.02;;;;;;;;;;5012471;28;20034;-71
2022/09/24 04:26:01;;;;;;;52.88;29.20;;;;;;;;;;5010145;28;20481;-72
2022/09/24 04:28:30;;;;;;;42.75;27.10;;;;;;;;;;5012027;28;20080;-72
2022/09/24 04:30:56;;;;;;;39.67;24.67;;;;;;;;;;5010701;28;20058;-73
2022/09/24 04:33:22;;;;;;;36.25;21.90;;;;;;;;;;5014354;28;20437;-72
2022/09/24 04:35:48;;;;;;;41.63;21.00;;;;;;;;;;5013574;28;20026;-71
2022/09/24 04:38:14;;;;;;;35.00;18.58;;;;;;;;;;4993231;28;20045;-72
2022/09/24 04:40:40;;;;;;;34.03;15.98;;;;;;;;;;5013956;28;20068;-72
2022/09/24 04:43:06;;;;;;;22.92;13.35;;;;;;;;;;4997155;28;20045;-74
2022/09/24 04:45:33;;;;;;;22.30;11.52;;;;;;;;;;5019205;28;20551;-72
2022/09/24 04:47:59;;;;;;;25.27;9.27;;;;;;;;;;5013215;28;20038;-72
2022/09/24 04:50:33;;;;;;;18.38;8.88;;;;;;;;;;5015657;28;20021;-72
2022/09/24 04:52:59;;;;;;;17.42;8.20;;;;;;;;;;5027764;28;20403;-73
2022/09/24 04:55:26;;;;;;;23.20;8.07;;;;;;;;;;5011326;28;20393;-71
2022/09/24 04:57:55;;;;;;;21.73;8.38;;;;;;;;;;5007282;28;20034;-72
2022/09/24 05:00:21;;;;;;;18.88;7.60;;;;;;;;;;5006650;28;20044;-72
2022/09/24 05:02:47;;;;;;;19.63;7.25;;;;;;;;;;5012781;28;20045;-72
2022/09/24 05:05:13;;;;;;;18.15;6.78;;;;;;;;;;5013198;28;20401;-71
2022/09/24 05:07:39;;;;;;;26.15;6.05;;;;;;;;;;5006987;28;20032;-72
2022/09/24 05:10:06;;;;;;;15.73;4.28;;;;;;;;;;4997523;28;20034;-71
2022/09/24 05:12:34;;;;;;;17.67;3.90;;;;;;;;;;5005891;28;20034;-71
2022/09/24 05:15:00;;;;;;;8.65;2.30;;;;;;;;;;5010818;28;20048;-70
2022/09/24 05:17:27;;;;;;;15.10;2.72;;;;;;;;;;5006272;28;20046;-71
2022/09/24 05:19:53;;;;;;;18.83;4.07;;;;;;;;;;4990921;28;20038;-72
2022/09/24 05:22:19;;;;;;;22.20;2.60;;;;;;;;;;5002592;28;20556;-71
2022/09/24 05:24:45;;;;;;;15.05;2.85;;;;;;;;;;4999528;28;20054;-72
2022/09/24 05:27:11;;;;;;;12.40;2.25;;;;;;;;;;5008896;28;20037;-72
2022/09/24 05:29:38;;;;;;;14.45;1.73;;;;;;;;;;5014892;28;20053;-72
2022/09/24 05:32:05;;;;;;;9.60;1.55;;;;;;;;;;5007107;28;20038;-71
2022/09/24 05:34:31;;;;;;;17.13;2.65;;;;;;;;;;5011262;28;20504;-71
2022/09/24 05:36:57;;;;;;;14.55;1.85;;;;;;;;;;5012215;28;20030;-72
2022/09/24 05:39:23;;;;;;;9.50;2.65;;;;;;;;;;4987375;28;20091;-71
2022/09/24 05:41:49;;;;;;;10.93;1.70;;;;;;;;;;5013070;28;20041;-70
2022/09/24 05:44:19;;;;;;;14.18;2.40;;;;;;;;;;5026191;28;20396;-70
2022/09/24 05:46:45;;;;;;;9.35;2.25;;;;;;;;;;5013471;28;20118;-70
2022/09/24 05:49:11;;;;;;;13.77;1.75;;;;;;;;;;5007665;28;20038;-70
2022/09/24 05:51:39;;;;;;;13.93;3.03;;;;;;;;;;5007497;28;20145;-71
2022/09/24 05:54:05;;;;;;;12.02;1.92;;;;;;;;;;5008098;28;20124;-71
2022/09/24 05:56:31;;;;;;;7.88;1.67;;;;;;;;;;4993810;28;20030;-71
2022/09/24 05:58:57;;;;;;;11.20;1.55;;;;;;;;;;4996976;28;20418;-71
2022/09/24 06:01:23;;;;;;;11.48;1.88;;;;;;;;;;5001906;28;20029;-72
2022/09/24 06:03:50;;;;;;;15.23;2.53;;;;;;;;;;4997179;28;20034;-71
2022/09/24 06:06:16;;;;;;;14.65;2.42;;;;;;;;;;5005864;28;20064;-71
2022/09/24 06:08:42;;;;;;;10.07;1.38;;;;;;;;;;5012612;28;20087;-71
2022/09/24 06:11:08;;;;;;;8.90;1.50;;;;;;;;;;5007814;28;20042;-72
2022/09/24 06:13:34;;;;;;;15.77;2.17;;;;;;;;;;5016983;28;20451;-71
2022/09/24 06:16:04;;;;;;;12.15;1.58;;;;;;;;;;5011850;28;20433;-72
2022/09/24 06:18:30;;;;;;;13.35;1.75;;;;;;;;;;5000923;28;20032;-72
2022/09/24 06:21:01;;;;;;;12.15;2.45;;;;;;;;;;5020514;28;20362;-71
2022/09/24 06:23:28;;;;;;;8.43;2.13;;;;;;;;;;5010515;28;20034;-71
2022/09/24 06:25:54;;;;;;;9.35;1.73;;;;;;;;;;5014022;28;20032;-71
2022/09/24 06:28:20;;;;;;;10.15;1.60;;;;;;;;;;5001391;28;20106;-71
2022/09/24 06:30:46;;;;;;;7.70;1.88;;;;;;;;;;5015022;28;20176;-71
2022/09/24 06:33:12;;;;;;;11.85;2.33;;;;;;;;;;5017948;28;20053;-70
2022/09/24 06:35:40;;;;;;;10.02;1.83;;;;;;;;;;5008203;28;20037;-70
2022/09/24 06:38:07;;;;;;;8.88;2.05;;;;;;;;;;5006520;28;20056;-71
2022/09/24 06:40:33;;;;;;;8.90;2.38;;;;;;;;;;5012143;28;20032;-71
2022/09/24 06:42:59;;;;;;;8.18;2.20;;;;;;;;;;5002257;28;20042;-71
2022/09/24 06:45:25;;;;;;;14.30;3.20;;;;;;;;;;5007196;28;20038;-71
2022/09/24 06:47:52;;;;;;;15.15;2.83;;;;;;;;;;5008687;28;20544;-71
2022/09/24 06:50:18;;;;;;;15.65;3.10;;;;;;;;;;5010379;28;20113;-71
2022/09/24 06:52:45;;;;;;;11.45;1.80;;;;;;;;;;5011337;28;20049;-70
2022/09/24 06:55:11;;;;;;;21.38;2.17;;;;;;;;;;5003372;28;20042;-71
2022/09/24 06:57:37;;;;;;;11.48;1.73;;;;;;;;;;5000792;28;20030;-71
2022/09/24 07:00:03;;;;;;;10.38;1.88;;;;;;;;;;5002504;28;20088;-71
2022/09/24 07:02:30;;;;;;;16.45;2.25;;;;;;;;;;5010014;28;20030;-72
2022/09/24 07:04:56;;;;;;;12.20;2.13;;;;;;;;;;5016225;28;20029;-71
2022/09/24 07:07:28;;;;;;;14.93;2.30;;;;;;;;;;5009658;28;20104;-72
2022/09/24 07:09:54;;;;;;;15.40;2.00;;;;;;;;;;5021471;28;20096;-71
2022/09/24 07:12:20;;;;;;;15.60;1.58;;;;;;;;;;5009504;28;20034;-69
2022/09/24 07:14:47;;;;;;;10.48;2.35;;;;;;;;;;5002981;28;20097;-70
2022/09/24 07:17:13;;;;;;;8.15;2.00;;;;;;;;;;5008202;28;20081;-70
2022/09/24 07:19:39;;;;;;;4.00;1.02;;;;;;;;;;5017908;28;20029;-70
2022/09/24 07:22:05;;;;;;;7.28;1.10;;;;;;;;;;5008246;28;20406;-71
2022/09/24 07:24:31;;;;;;;10.68;1.13;;;;;;;;;;5018664;28;20481;-71
2022/09/24 07:26:57;;;;;;;9.50;2.60;;;;;;;;;;5008429;28;20034;-70
2022/09/24 07:29:23;;;;;;;9.73;1.42;;;;;;;;;;5008101;28;20034;-70
2022/09/24 07:31:50;;;;;;;12.40;1.55;;;;;;;;;;5010914;28;20054;-70
2022/09/24 07:34:16;;;;;;;7.07;1.58;;;;;;;;;;5011770;28;20022;-70
2022/09/24 07:36:42;;;;;;;10.98;1.85;;;;;;;;;;5007357;28;20053;-70
2022/09/24 07:39:08;;;;;;;9.15;1.88;;;;;;;;;;5014320;28;20030;-71
2022/09/24 07:41:35;;;;;;;13.73;1.45;;;;;;;;;;5000277;28;20039;-68
2022/09/24 07:44:01;;;;;;;10.77;1.33;;;;;;;;;;5006245;28;20030;-71
2022/09/24 07:46:27;;;;;;;7.15;1.00;;;;;;;;;;5016431;28;20038;-70
2022/09/24 07:48:56;;;;;;;12.32;1.65;;;;;;;;;;5008419;28;20367;-70
2022/09/24 07:51:23;;;;;;;7.70;1.23;;;;;;;;;;5011414;28;20030;-70
2022/09/24 07:53:49;;;;;;;9.65;1.20;;;;;;;;;;5009092;28;20487;-71
2022/09/24 07:56:15;;;;;;;5.63;0.90;;;;;;;;;;5001874;28;20054;-70
2022/09/24 07:58:41;;;;;;;8.20;1.30;;;;;;;;;;5006040;28;20033;-70
2022/09/24 08:01:07;;;;;;;3.88;0.55;;;;;;;;;;4997666;28;20368;-70
2022/09/24 08:03:33;;;;;;;7.15;2.15;;;;;;;;;;5005453;28;20489;-71
2022/09/24 08:06:00;;;;;;;8.63;2.95;;;;;;;;;;5007863;28;20038;-71
2022/09/24 08:08:26;;;;;;;6.88;1.90;;;;;;;;;;5003264;28;20026;-71
2022/09/24 08:10:53;;;;;;;7.63;1.25;;;;;;;;;;5010826;28;20030;-72
2022/09/24 08:13:20;;;;;;;6.30;1.00;;;;;;;;;;5004753;28;20113;-71
2022/09/24 08:15:46;;;;;;;2.75;0.70;;;;;;;;;;5005577;28;20033;-72
2022/09/24 08:18:12;;;;;;;5.60;0.90;;;;;;;;;;5004503;28;20046;-71
2022/09/24 08:20:38;;;;;;;10.27;2.03;;;;;;;;;;4995485;28;20084;-71
2022/09/24 08:23:05;;;;;;;6.78;1.38;;;;;;;;;;5010775;28;20037;-71
2022/09/24 08:25:31;;;;;;;8.43;1.15;;;;;;;;;;5009358;28;20049;-72
2022/09/24 08:28:01;;;;;;;7.22;1.08;;;;;;;;;;5016873;28;20041;-70
2022/09/24 08:30:28;;;;;;;10.32;4.72;;;;;;;;;;5015235;28;20057;-70
2022/09/24 08:32:54;;;;;;;9.57;2.75;;;;;;;;;;4999455;28;20049;-72
2022/09/24 08:35:20;;;;;;;9.48;1.63;;;;;;;;;;4995193;28;20046;-71
2022/09/24 08:37:46;;;;;;;7.07;1.27;;;;;;;;;;4994793;28;20038;-70
2022/09/24 08:40:18;;;;;;;9.57;1.83;;;;;;;;;;5004674;28;20041;-69
2022/09/24 08:42:52;;;;;;;11.48;1.70;;;;;;;;;;4983753;28;20026;-70
2022/09/24 08:48:15;;;;;;;9.48;1.92;;;;;;;;;;5012857;28;20171;-71
2022/09/24 08:50:47;;;;;;;7.55;1.20;;;;;;;;;;5013253;28;20495;-70
2022/09/24 08:53:23;;;;;;;10.25;1.50;;;;;;;;;;5005953;28;20037;-69
2022/09/24 08:55:59;;;;;;;15.07;1.88;;;;;;;;;;5010122;28;20034;-70
2022/09/24 08:58:31;;;;;;;11.38;1.55;;;;;;;;;;5015861;28;20037;-70
2022/09/24 09:01:00;;;;;;;12.00;1.60;;;;;;;;;;5010563;28;20025;-69
2022/09/24 09:03:37;;;;;;;11.27;1.55;;;;;;;;;;5016581;28;20069;-70
2022/09/24 09:06:11;;;;;;;7.68;1.38;;;;;;;;;;5013882;28;20080;-72
2022/09/24 09:08:56;;;;;;;12.70;4.20;;;;;;;;;;5004454;28;20100;-71
2022/09/24 09:11:24;;;;;;;19.58;6.28;;;;;;;;;;5012137;28;21356;-71
2022/09/24 09:14:10;;;;;;;5.72;1.60;;;;;;;;;;5006016;28;20441;-70
2022/09/24 09:16:49;;;;;;;11.63;1.05;;;;;;;;;;5011328;28;20030;-71
2022/09/24 09:19:16;;;;;;;12.13;1.50;;;;;;;;;;4993783;28;20117;-70
2022/09/24 09:21:46;;;;;;;14.85;2.00;;;;;;;;;;4999926;28;20065;-69
2022/09/24 09:24:16;;;;;;;10.60;1.58;;;;;;;;;;4999239;28;20050;-69
2022/09/24 09:26:46;;;;;;;14.27;2.28;;;;;;;;;;5013099;28;20095;-70
2022/09/24 09:29:12;;;;;;;8.98;1.70;;;;;;;;;;5012186;28;20029;-70
2022/09/24 09:31:38;;;;;;;7.60;1.60;;;;;;;;;;4988034;28;20121;-69
2022/09/24 09:34:21;;;;;;;17.35;2.00;;;;;;;;;;5011949;28;20033;-69
2022/09/24 09:37:06;;;;;;;10.93;1.27;;;;;;;;;;5008805;28;20080;-69
2022/09/24 09:39:41;;;;;;;4.72;0.95;;;;;;;;;;5001510;28;20426;-70
2022/09/24 09:42:26;;;;;;;10.48;1.88;;;;;;;;;;5011803;28;20045;-69
2022/09/24 09:44:52;;;;;;;5.53;0.98;;;;;;;;;;4990788;28;20030;-72
2022/09/24 09:47:35;;;;;;;21.70;9.98;;;;;;;;;;5001947;28;20616;-71
2022/09/24 09:50:06;;;;;;;11.50;1.60;;;;;;;;;;5026145;28;20386;-71
2022/09/24 09:52:35;;;;;;;4.82;0.80;;;;;;;;;;5011769;28;20100;-71
2022/09/24 09:55:04;;;;;;;9.48;1.23;;;;;;;;;;5011696;28;20041;-70
2022/09/24 09:57:30;;;;;;;12.00;1.67;;;;;;;;;;5009701;28;20053;-70
2022/09/24 09:59:56;;;;;;;3.47;0.85;;;;;;;;;;5013323;28;20037;-70
2022/09/24 10:02:42;;;;;;;7.93;0.95;;;;;;;;;;5010027;28;20034;-70
2022/09/24 10:05:18;;;;;;;8.23;0.90;;;;;;;;;;5009901;28;20034;-70
2022/09/24 10:07:45;;;;;;;10.82;2.97;;;;;;;;;;5012988;28;20682;-70
2022/09/24 10:10:18;;;;;;;6.63;1.67;;;;;;;;;;4994637;28;20033;-70
2022/09/24 10:12:45;;;;;;;9.13;1.63;;;;;;;;;;5012447;28;20057;-70
2022/09/24 10:15:14;;;;;;;12.80;2.28;;;;;;;;;;5011140;28;20034;-71
2022/09/24 10:17:41;;;;;;;7.95;0.90;;;;;;;;;;5008053;28;20096;-70
2022/09/24 10:20:17;;;;;;;6.47;1.08;;;;;;;;;;5013904;28;20037;-72
2022/09/24 10:22:46;;;;;;;11.95;3.50;;;;;;;;;;4999850;28;20029;-69
2022/09/24 10:25:17;;;;;;;13.85;3.55;;;;;;;;;;5009051;28;20065;-70
2022/09/24 10:27:43;;;;;;;6.57;1.25;;;;;;;;;;5009808;28;20033;-70
2022/09/24 10:32:59;;;;;;;7.88;1.05;;;;;;;;;;5011956;28;20044;-71
2022/09/24 10:35:31;;;;;;;10.25;1.60;;;;;;;;;;5009137;28;20401;-71
2022/09/24 10:37:58;;;;;;;13.93;2.05;;;;;;;;;;5014019;28;20458;-71
2022/09/24 10:40:29;;;;;;;11.57;1.30;;;;;;;;;;5010546;28;20032;-71
2022/09/24 10:42:57;;;;;;;6.82;1.60;;;;;;;;;;5010007;28;20033;-73
2022/09/24 10:45:25;;;;;;;12.13;1.35;;;;;;;;;;5010282;28;20037;-70
2022/09/24 10:48:04;;;;;;;5.22;1.60;;;;;;;;;;5009742;28;20058;-71
2022/09/24 10:50:37;;;;;;;6.80;1.42;;;;;;;;;;5020462;28;20026;-72
2022/09/24 10:53:07;;;;;;;11.27;2.20;;;;;;;;;;5009207;28;20026;-71
2022/09/24 10:55:39;;;;;;;10.52;2.70;;;;;;;;;;5006372;28;20183;-71
2022/09/24 10:58:11;;;;;;;11.70;3.47;;;;;;;;;;5016332;28;20196;-73
2022/09/24 11:00:47;;;;;;;7.72;1.10;;;;;;;;;;5011528;28;20130;-70
2022/09/24 11:03:29;;;;;;;7.95;1.55;;;;;;;;;;5004603;28;20080;-70
2022/09/24 11:06:14;;;;;;;6.50;1.00;;;;;;;;;;5008996;28;20496;-71
2022/09/24 11:08:49;;;;;;;13.00;2.13;;;;;;;;;;5008381;28;20033;-71
2022/09/24 11:11:27;;;;;;;7.93;1.38;;;;;;;;;;5008744;28;20469;-71
2022/09/24 11:14:08;;;;;;;9.32;1.38;;;;;;;;;;5009371;28;20057;-71
2022/09/24 11:16:46;;;;;;;12.65;1.75;;;;;;;;;;5000683;28;20037;-70
2022/09/24 11:19:15;;;;;;;7.15;1.42;;;;;;;;;;5005051;28;20030;-71
2022/09/24 11:22:00;;;;;;;9.35;1.58;;;;;;;;;;5009094;28;20089;-71
2022/09/24 11:24:35;;;;;;;6.10;1.27;;;;;;;;;;5011992;28;20026;-71
2022/09/24 11:27:07;;;;;;;10.63;2.00;;;;;;;;;;5008460;28;20426;-71
2022/09/24 11:29:39;;;;;;;9.00;1.23;;;;;;;;;;5010376;28;20037;-71
2022/09/24 11:32:18;;;;;;;6.38;0.90;;;;;;;;;;5006401;28;20367;-71
2022/09/24 11:34:50;;;;;;;10.85;2.65;;;;;;;;;;5009280;28;20034;-70
2022/09/24 11:37:16;;;;;;;8.93;1.58;;;;;;;;;;5010074;28;20029;-71
2022/09/24 11:40:02;;;;;;;9.68;2.17;;;;;;;;;;5010516;28;20088;-71
2022/09/24 11:42:40;;;;;;;12.95;1.80;;;;;;;;;;4990492;28;20374;-71
2022/09/24 11:45:19;;;;;;;9.43;1.80;;;;;;;;;;4992758;28;20038;-70
2022/09/24 11:47:55;;;;;;;6.22;1.15;;;;;;;;;;5012260;28;20445;-70
2022/09/24 11:50:37;;;;;;;14.60;1.85;;;;;;;;;;5009665;28;20038;-70
2022/09/24 11:53:08;;;;;;;7.43;0.90;;;;;;;;;;4975828;28;20030;-71
2022/09/24 11:55:39;;;;;;;11.80;2.17;;;;;;;;;;5003910;28;20029;-70
2022/09/24 11:58:16;;;;;;;7.93;1.20;;;;;;;;;;5010054;28;20445;-71
2022/09/24 12:00:58;;;;;;;9.90;1.80;;;;;;;;;;4996604;28;20032;-70
2022/09/24 12:03:29;;;;;;;8.95;1.15;;;;;;;;;;5010550;28;20440;-72
2022/09/24 12:06:02;;;;;;;7.57;1.48;;;;;;;;;;4991968;28;20243;-70
2022/09/24 12:09:00;;;;;;;8.05;1.23;;;;;;;;;;5006052;28;20153;-70
2022/09/24 12:11:34;;;;;;;13.40;2.72;;;;;;;;;;4962751;28;20174;-70
2022/09/24 12:14:05;;;;;;;10.10;1.20;;;;;;;;;;5015066;28;20057;-71
2022/09/24 12:16:36;;;;;;;6.30;1.15;;;;;;;;;;5000175;28;20160;-72
2022/09/24 12:19:05;;;;;;;10.85;2.03;;;;;;;;;;5011052;28;20077;-72
2022/09/24 12:21:39;;;;;;;9.70;2.30;;;;;;;;;;5008443;28;20461;-70
2022/09/24 12:24:09;;;;;;;5.38;1.40;;;;;;;;;;5009144;28;20100;-70
2022/09/24 12:26:37;;;;;;;4.72;1.10;;;;;;;;;;5018137;28;20033;-72
2022/09/24 12:35:06;;;;;;;6.95;1.15;;;;;;;;;;5009791;28;20532;-71
2022/09/24 12:37:37;;;;;;;5.90;0.75;;;;;;;;;;5012621;28;20036;-70
2022/09/24 12:40:13;;;;;;;6.78;1.02;;;;;;;;;;5006994;28;20394;-71
2022/09/24 12:42:43;;;;;;;8.35;1.33;;;;;;;;;;5012017;28;20037;-71
2022/09/24 12:45:14;;;;;;;9.95;0.95;;;;;;;;;;5011702;28;20044;-71
2022/09/24 12:47:46;;;;;;;6.20;0.82;;;;;;;;;;5015468;28;20030;-71
2022/09/24 12:50:20;;;;;;;5.50;1.38;;;;;;;;;;5014892;28;20065;-71
2022/09/24 12:52:46;;;;;;;7.95;1.20;;;;;;;;;;5007571;28;20042;-70
2022/09/24 12:55:24;;;;;;;6.75;1.38;;;;;;;;;;5011096;28;20069;-71
2022/09/24 12:57:53;;;;;;;7.30;0.82;;;;;;;;;;5000542;28;20034;-70
2022/09/24 13:00:38;;;;;;;10.90;0.95;;;;;;;;;;5012566;28;20096;-71
2022/09/24 13:03:05;;;;;;;7.65;0.82;;;;;;;;;;5009698;28;20116;-71
2022/09/24 13:05:46;;;;;;;8.15;1.35;;;;;;;;;;5019600;28;20041;-71
2022/09/24 13:08:12;;;;;;;11.15;2.30;;;;;;;;;;5014321;28;20054;-71
2022/09/24 13:10:38;;;;;;;9.77;0.93;;;;;;;;;;5006881;28;20410;-71
2022/09/24 13:13:20;;;;;;;8.18;1.23;;;;;;;;;;5005494;28;20389;-71
2022/09/24 13:15:57;;;;;;;10.30;2.15;;;;;;;;;;5009984;28;20033;-70
2022/09/24 13:18:23;;;;;;;14.50;2.58;;;;;;;;;;5005329;28;20085;-71
2022/09/24 13:20:58;;;;;;;15.65;3.22;;;;;;;;;;5008844;28;20025;-70
2022/09/24 13:23:24;;;;;;;13.82;3.05;;;;;;;;;;5006736;28;20045;-70
2022/09/24 13:26:12;;;;;;;13.25;1.73;;;;;;;;;;5009452;28;20378;-71
2022/09/24 13:28:39;;;;;;;12.90;2.13;;;;;;;;;;4998513;28;20034;-70
2022/09/24 13:31:05;;;;;;;12.52;2.17;;;;;;;;;;5011018;28;20235;-70
2022/09/24 13:33:33;;;;;;;14.13;2.20;;;;;;;;;;4991968;28;20121;-70
2022/09/24 13:36:05;;;;;;;9.52;1.10;;;;;;;;;;5029595;28;20138;-70
2022/09/24 13:38:31;;;;;;;;;;;;;;;;;;5019602;28;20061;-70
2022/09/24 13:41:00;;;;;;;11.45;1.67;;;;;;;;;;5009316;28;20385;-70
2022/09/24 13:43:38;;;;;;;8.48;1.17;;;;;;;;;;5019404;28;20037;-70
2022/09/24 13:46:07;;;;;;;9.20;1.35;;;;;;;;;;5006280;28;20447;-70
2022/09/24 13:48:38;;;;;;;10.13;1.85;;;;;;;;;;5010566;28;20025;-70
2022/09/24 13:51:06;;;;;;;10.60;1.65;;;;;;;;;;4995040;28;20041;-70
2022/09/24 13:53:44;;;;;;;13.55;1.70;;;;;;;;;;5002218;28;20484;-70
2022/09/24 13:56:14;;;;;;;9.25;1.85;;;;;;;;;;5013980;28;20060;-71
2022/09/24 13:58:41;;;;;;;11.35;1.50;;;;;;;;;;5006690;28;20036;-69
2022/09/24 14:01:10;;;;;;;13.93;1.55;;;;;;;;;;5014403;28;20363;-69
2022/09/24 14:03:37;;;;;;;11.52;1.17;;;;;;;;;;4999850;28;20145;-72
2022/09/24 14:06:10;;;;;;;61.28;33.25;;;;;;;;;;5006417;28;20457;-72
2022/09/24 14:08:39;;;;;;;10.15;3.00;;;;;;;;;;5005773;28;21673;-73
2022/09/24 14:11:26;;;;;;;11.93;5.00;;;;;;;;;;5003245;28;20041;-72
2022/09/24 14:13:53;;;;;;;9.05;1.85;;;;;;;;;;4999554;28;20034;-70
2022/09/24 14:16:21;;;;;;;7.95;1.30;;;;;;;;;;5012018;28;20068;-70
2022/09/24 14:18:48;;;;;;;7.00;1.00;;;;;;;;;;5001054;28;20037;-70
2022/09/24 14:21:21;;;;;;;5.78;1.02;;;;;;;;;;5006894;28;20093;-70
2022/09/24 14:24:02;;;;;;;8.98;1.25;;;;;;;;;;5012920;28;20047;-71
2022/09/24 14:26:46;;;;;;;4.78;1.27;;;;;;;;;;5009059;28;20472;-71
2022/09/24 14:29:24;;;;;;;8.98;0.98;;;;;;;;;;5010081;28;20032;-70
2022/09/24 14:31:52;;;;;;;7.03;0.85;;;;;;;;;;5013015;28;20050;-70
2022/09/24 14:34:21;;;;;;;7.65;0.75;;;;;;;;;;5016185;28;20038;-70
2022/09/24 14:36:48;;;;;;;7.70;1.70;;;;;;;;;;5006539;28;20030;-72
2022/09/24 14:39:14;;;;;;;5.43;1.67;;;;;;;;;;5006206;28;20536;-73
2022/09/24 14:41:40;;;;;;;4.03;1.42;;;;;;;;;;5011462;28;20108;-71
2022/09/24 14:44:21;;;;;;;7.97;0.80;;;;;;;;;;5015102;28;20042;-69
2022/09/24 14:46:50;;;;;;;3.28;0.40;;;;;;;;;;5003531;28;20038;-70
2022/09/24 14:49:23;;;;;;;3.40;0.60;;;;;;;;;;5009837;28;20030;-70
2022/09/24 14:51:54;;;;;;;5.57;0.70;;;;;;;;;;5009469;28;20029;-70
2022/09/24 14:54:39;;;;;;;1.77;0.43;;;;;;;;;;5006018;28;20022;-70
2022/09/24 14:57:24;;;;;;;4.28;0.70;;;;;;;;;;5006979;28;20026;-71
2022/09/24 14:59:50;;;;;;;4.60;0.75;;;;;;;;;;5004615;28;20092;-70
2022/09/24 15:02:30;;;;;;;9.52;1.00;;;;;;;;;;5008891;28;20034;-71